Time;durP1;ratioP1;P1;durP2;ratioP2;P2;SDS_P1;SDS_P2;PMS_P1;PMS_P2;Temp;Humidity;BMP_temperature;BMP_pressure;BME280_temperature;BME280_humidity;BME280_pressure;Samples;Min_cycle;Max_cycle;Signal;HPM_P1;HPM_P2
2024/03/06 00:01:51;;;;;;;75.32;22.73;;;;;;;10.14;100.00;97883.22;5096661;27;21167;-59
2024/03/06 00:04:16;;;;;;;86.72;19.98;;;;;;;9.97;100.00;97878.91;5096550;27;20039;-60
2024/03/06 00:06:41;;;;;;;105.60;21.67;;;;;;;10.02;100.00;97884.97;5095945;27;20312;-60
2024/03/06 00:09:08;;;;;;;76.25;20.75;;;;;;;9.71;100.00;97882.44;5095009;27;20032;-61
2024/03/06 00:11:35;;;;;;;87.65;21.23;;;;;;;9.54;100.00;97889.38;5093622;27;20044;-61
2024/03/06 00:14:02;;;;;;;70.55;22.45;;;;;;;9.64;100.00;97898.88;5097307;27;20285;-58
2024/03/06 00:16:27;;;;;;;75.05;21.95;;;;;;;9.68;100.00;97895.41;5096228;27;20077;-59
2024/03/06 00:18:52;;;;;;;94.22;22.20;;;;;;;9.81;100.00;97905.78;5095288;27;20035;-61
2024/03/06 00:21:17;;;;;;;87.25;19.67;;;;;;;9.57;100.00;97904.97;5094316;27;20059;-59
2024/03/06 00:23:43;;;;;;;104.93;23.45;;;;;;;9.50;100.00;97917.06;5094322;27;20043;-60
2024/03/06 00:26:09;;;;;;;88.57;23.15;;;;;;;9.68;100.00;97910.16;5093590;27;20146;-59
2024/03/06 00:28:35;;;;;;;74.20;20.77;;;;;;;9.43;100.00;97920.53;5095729;27;20049;-59
2024/03/06 00:31:00;;;;;;;70.32;22.27;;;;;;;9.66;100.00;97922.25;5096100;27;20032;-59
2024/03/06 00:33:25;;;;;;;141.02;24.98;;;;;;;9.55;100.00;97924.88;5094723;27;20062;-60
2024/03/06 00:35:51;;;;;;;105.60;23.08;;;;;;;9.51;100.00;97930.06;5093691;27;20027;-62
2024/03/06 00:38:16;;;;;;;74.15;21.65;;;;;;;9.60;100.00;97926.59;5095970;27;20088;-60
2024/03/06 00:40:41;;;;;;;105.15;19.92;;;;;;;9.60;100.00;97931.78;5093463;27;20039;-59
2024/03/06 00:43:07;;;;;;;82.68;20.42;;;;;;;9.85;100.00;97933.50;5096861;27;20410;-60
2024/03/06 00:45:32;;;;;;;62.03;19.90;;;;;;;10.05;100.00;97935.22;5093724;27;20059;-59
2024/03/06 00:47:57;;;;;;;102.35;22.60;;;;;;;9.64;100.00;97935.25;5095773;27;20494;-60
2024/03/06 00:50:23;;;;;;;85.13;21.67;;;;;;;9.46;100.00;97941.28;5093940;27;20051;-60
2024/03/06 00:52:48;;;;;;;95.32;22.45;;;;;;;9.89;100.00;97948.22;5094734;28;20316;-60
2024/03/06 00:55:14;;;;;;;103.72;21.35;;;;;;;9.81;100.00;97945.63;5094963;27;20027;-59
2024/03/06 00:57:39;;;;;;;90.45;21.38;;;;;;;9.51;100.00;97937.84;5096134;27;20015;-58
2024/03/06 01:00:10;;;;;;;101.85;22.00;;;;;;;9.38;100.00;97930.91;5096012;27;20043;-58
2024/03/06 01:02:39;;;;;;;79.38;19.23;;;;;;;9.65;100.00;97939.56;5095107;27;20058;-58
2024/03/06 01:05:06;;;;;;;63.17;18.88;;;;;;;9.53;100.00;97932.66;5095207;27;20111;-61
2024/03/06 01:07:32;;;;;;;88.88;20.75;;;;;;;9.34;100.00;97937.84;5094593;28;20085;-61
2024/03/06 01:09:58;;;;;;;90.25;22.85;;;;;;;9.23;100.00;97940.44;5093201;27;20055;-58
2024/03/06 01:12:24;;;;;;;82.60;22.65;;;;;;;9.26;100.00;97949.94;5095800;27;20602;-58
2024/03/06 01:14:49;;;;;;;131.52;26.10;;;;;;;9.31;100.00;97942.19;5092528;28;20023;-59
2024/03/06 01:17:15;;;;;;;71.50;23.30;;;;;;;9.29;100.00;97943.91;5093228;27;20043;-59
2024/03/06 01:19:40;;;;;;;95.40;25.58;;;;;;;9.68;100.00;97947.34;5095077;27;20022;-59
2024/03/06 01:22:05;;;;;;;98.93;27.02;;;;;;;9.35;100.00;97943.88;5092944;27;20461;-59
2024/03/06 01:24:31;;;;;;;69.22;21.63;;;;;;;9.22;100.00;97938.72;5095974;28;20581;-60
2024/03/06 01:26:56;;;;;;;73.30;21.92;;;;;;;8.95;100.00;97939.53;5094383;27;20035;-60
2024/03/06 01:29:21;;;;;;;104.50;31.50;;;;;;;9.05;100.00;97938.66;5094271;27;20485;-60
2024/03/06 01:31:47;;;;;;;129.00;36.80;;;;;;;9.19;100.00;97933.50;5092030;27;20088;-62
2024/03/06 01:34:12;;;;;;;83.28;39.88;;;;;;;9.23;100.00;97929.19;5096188;28;20036;-61
2024/03/06 01:36:37;;;;;;;95.82;24.90;;;;;;;9.21;100.00;97934.34;5092794;27;20381;-60
2024/03/06 01:39:03;;;;;;;79.93;26.77;;;;;;;9.11;100.00;97925.72;5097334;28;20035;-60
2024/03/06 01:41:28;;;;;;;76.25;26.58;;;;;;;9.04;100.00;97929.16;5093207;27;20052;-57
2024/03/06 01:43:54;;;;;;;105.30;30.27;;;;;;;8.80;100.00;97933.41;5092664;28;20455;-59
2024/03/06 01:46:19;;;;;;;97.53;38.58;;;;;;;8.81;100.00;97942.06;5094435;27;20084;-61
2024/03/06 01:48:45;;;;;;;121.43;37.90;;;;;;;8.76;100.00;97944.63;5094282;28;20399;-58
2024/03/06 01:51:11;;;;;;;107.15;52.60;;;;;;;9.04;100.00;97942.13;5094686;27;20087;-59
2024/03/06 01:53:37;;;;;;;106.35;44.58;;;;;;;8.98;100.00;97947.28;5095944;27;20463;-60
2024/03/06 01:56:04;;;;;;;95.38;40.25;;;;;;;8.80;100.00;97946.38;5094136;27;20028;-61
2024/03/06 01:58:30;;;;;;;82.20;37.83;;;;;;;8.85;100.00;97946.41;5095896;28;20028;-60
2024/03/06 02:00:57;;;;;;;133.50;36.67;;;;;;;8.89;100.00;97950.75;5091854;28;20061;-59
2024/03/06 02:03:23;;;;;;;120.38;32.20;;;;;;;8.76;100.00;97944.63;5093185;28;20669;-59
2024/03/06 02:05:49;;;;;;;113.90;48.42;;;;;;;9.12;100.00;97947.31;5091987;27;20837;-60
2024/03/06 02:08:14;;;;;;;96.95;45.95;;;;;;;9.07;100.00;97943.84;5095826;28;20701;-59
2024/03/06 02:10:41;;;;;;;119.68;36.75;;;;;;;8.90;100.00;97946.44;5092554;28;20046;-60
2024/03/06 02:13:06;;;;;;;94.07;36.88;;;;;;;8.78;100.00;97952.44;5094471;28;20371;-60
2024/03/06 02:15:31;;;;;;;95.50;45.08;;;;;;;8.81;100.00;97953.31;5093495;28;20334;-59
2024/03/06 02:17:57;;;;;;;151.23;50.33;;;;;;;8.80;100.00;97951.56;5094297;28;20180;-60
2024/03/06 02:20:24;;;;;;;105.97;40.22;;;;;;;8.80;100.00;97955.91;5093481;27;20028;-61
2024/03/06 02:22:49;;;;;;;140.82;50.60;;;;;;;9.26;100.00;97955.13;5092627;28;20016;-59
2024/03/06 02:25:15;;;;;;;122.13;38.97;;;;;;;9.08;100.00;97948.19;5094023;27;20806;-57
2024/03/06 02:27:41;;;;;;;99.25;40.22;;;;;;;8.91;100.00;97948.16;5093065;28;20089;-59
2024/03/06 02:30:07;;;;;;;75.00;41.45;;;;;;;8.93;100.00;97942.09;5095854;28;20865;-60
2024/03/06 02:32:32;;;;;;;118.53;48.35;;;;;;;9.21;100.00;97946.47;5091496;27;20446;-60
2024/03/06 02:34:57;;;;;;;125.90;39.55;;;;;;;8.98;100.00;97942.97;5092616;28;20024;-59
2024/03/06 02:37:24;;;;;;;100.40;42.88;;;;;;;9.05;100.00;97948.19;5093935;27;20050;-60
2024/03/06 02:39:49;;;;;;;149.73;44.65;;;;;;;9.06;100.00;97949.91;5093589;28;20033;-61
2024/03/06 02:42:15;;;;;;;90.82;37.90;;;;;;;8.83;100.00;97942.91;5092825;27;20048;-58
2024/03/06 02:44:40;;;;;;;92.28;38.88;;;;;;;8.87;100.00;97946.41;5092878;28;20107;-59
2024/03/06 02:47:05;;;;;;;112.57;41.42;;;;;;;8.71;100.00;97944.63;5095386;27;20200;-60
2024/03/06 02:49:31;;;;;;;99.53;40.13;;;;;;;8.53;100.00;97941.94;5098411;27;20029;-59
2024/03/06 02:51:57;;;;;;;105.20;44.30;;;;;;;8.58;100.00;97935.09;5096232;27;20467;-58
2024/03/06 02:54:24;;;;;;;119.68;39.13;;;;;;;8.66;100.00;97937.69;5097420;27;20032;-58
2024/03/06 02:56:51;;;;;;;118.22;41.67;;;;;;;8.66;100.00;97941.16;5095957;27;20212;-61
2024/03/06 02:59:17;;;;;;;113.15;45.05;;;;;;;8.86;100.00;97942.94;5098784;27;20563;-61
2024/03/06 03:01:42;;;;;;;107.57;42.60;;;;;;;8.97;100.00;97933.47;5095448;27;20542;-59
2024/03/06 03:04:10;;;;;;;94.45;38.13;;;;;;;8.92;100.00;97950.75;5097178;27;20070;-58
2024/03/06 03:06:36;;;;;;;103.78;34.67;;;;;;;8.66;100.00;97943.75;5095755;27;20035;-58
2024/03/06 03:09:03;;;;;;;94.03;40.67;;;;;;;8.73;100.00;97944.66;5096762;27;20022;-59
2024/03/06 03:11:29;;;;;;;117.38;41.63;;;;;;;8.62;100.00;97939.41;5094718;27;20758;-61
2024/03/06 03:13:54;;;;;;;163.43;45.95;;;;;;;8.57;100.00;97936.81;5095237;27;20027;-59
2024/03/06 03:16:20;;;;;;;108.47;45.05;;;;;;;8.34;100.00;97942.72;5095647;27;20046;-58
2024/03/06 03:18:46;;;;;;;131.70;43.05;;;;;;;8.37;100.00;97928.91;5095593;27;20119;-59
2024/03/06 03:21:12;;;;;;;138.35;43.88;;;;;;;8.38;100.00;97927.19;5094202;27;20070;-61
2024/03/06 03:23:39;;;;;;;110.80;40.00;;;;;;;8.09;100.00;97926.16;5098509;27;20521;-59
2024/03/06 03:26:05;;;;;;;117.43;46.20;;;;;;;7.91;100.00;97927.78;5096576;27;20051;-60
2024/03/06 03:28:30;;;;;;;130.02;48.58;;;;;;;8.11;100.00;97919.28;5097021;27;20038;-59
2024/03/06 03:30:56;;;;;;;133.00;48.92;;;;;;;8.20;100.00;97924.50;5097281;27;20364;-58
2024/03/06 03:33:22;;;;;;;124.38;59.85;;;;;;;8.22;100.00;97924.53;5096348;27;20050;-60
2024/03/06 03:35:47;;;;;;;170.75;56.85;;;;;;;8.28;100.00;97932.31;5095191;27;20279;-59
2024/03/06 03:38:13;;;;;;;113.68;46.65;;;;;;;8.31;100.00;97931.47;5095869;27;20497;-57
2024/03/06 03:40:38;;;;;;;116.38;44.60;;;;;;;8.51;100.00;97935.88;5097877;27;20092;-59
2024/03/06 03:43:06;;;;;;;125.05;42.92;;;;;;;8.54;100.00;97939.38;5097057;27;20290;-60
2024/03/06 03:45:33;;;;;;;117.85;42.58;;;;;;;8.46;100.00;97941.03;5095284;27;20447;-60
2024/03/06 03:47:59;;;;;;;148.40;44.33;;;;;;;8.30;100.00;97938.38;5096831;27;20093;-61
2024/03/06 03:50:25;;;;;;;119.60;41.75;;;;;;;8.17;100.00;97940.03;5096662;27;20450;-62
2024/03/06 03:52:50;;;;;;;143.63;46.03;;;;;;;8.14;100.00;97950.41;5095088;27;20519;-58
2024/03/06 03:55:15;;;;;;;134.90;42.28;;;;;;;8.27;100.00;97946.13;5097127;27;20119;-60
2024/03/06 03:57:41;;;;;;;96.32;42.97;;;;;;;8.25;100.00;97944.41;5096226;27;20564;-58
2024/03/06 04:00:10;;;;;;;102.90;47.90;;;;;;;8.35;100.00;97951.34;5093961;27;20370;-58
2024/03/06 04:02:37;;;;;;;145.85;43.92;;;;;;;8.32;100.00;97956.53;5094597;27;20069;-60
2024/03/06 04:05:02;;;;;;;147.15;42.95;;;;;;;8.29;100.00;97959.09;5094942;27;20464;-58
2024/03/06 04:07:27;;;;;;;112.75;40.08;;;;;;;8.20;100.00;97955.59;5095005;27;20733;-59
2024/03/06 04:09:53;;;;;;;204.02;49.58;;;;;;;8.49;100.00;97960.94;5092557;27;20037;-59
2024/03/06 04:12:18;;;;;;;107.60;43.53;;;;;;;8.74;100.00;97959.34;5095825;27;20046;-59
2024/03/06 04:14:43;;;;;;;112.55;40.55;;;;;;;8.62;100.00;97965.34;5094288;27;20027;-60
2024/03/06 04:17:09;;;;;;;135.35;41.13;;;;;;;8.52;100.00;97966.13;5095029;27;20051;-58
2024/03/06 04:19:34;;;;;;;107.68;38.78;;;;;;;8.63;100.00;97969.66;5098645;27;20380;-59
2024/03/06 04:22:00;;;;;;;136.35;41.55;;;;;;;8.75;100.00;97974.03;5094266;27;20399;-56
2024/03/06 04:24:26;;;;;;;129.80;41.75;;;;;;;8.70;100.00;97980.94;5096389;27;20578;-59
2024/03/06 04:26:51;;;;;;;143.65;41.20;;;;;;;8.43;100.00;97974.72;5093348;27;20039;-57
2024/03/06 04:29:17;;;;;;;118.45;42.90;;;;;;;8.36;100.00;97980.72;5095758;27;20027;-59
2024/03/06 04:31:42;;;;;;;109.65;39.88;;;;;;;8.28;100.00;97978.09;5094380;27;20049;-57
2024/03/06 04:34:08;;;;;;;114.97;43.75;;;;;;;8.32;100.00;97985.03;5094412;27;20036;-56
2024/03/06 04:36:33;;;;;;;108.45;44.28;;;;;;;8.71;100.00;97982.66;5095282;27;20051;-58
2024/03/06 04:38:58;;;;;;;125.15;40.75;;;;;;;8.86;100.00;97992.22;5093257;27;20050;-57
2024/03/06 04:41:24;;;;;;;125.85;66.43;;;;;;;8.37;100.00;97985.94;5093092;27;20110;-58
2024/03/06 04:43:52;;;;;;;134.75;38.25;;;;;;;8.38;100.00;97986.81;5094769;27;20020;-59
2024/03/06 04:46:18;;;;;;;117.97;40.80;;;;;;;8.49;100.00;97986.88;5093950;27;20508;-59
2024/03/06 04:48:43;;;;;;;101.63;39.70;;;;;;;8.37;100.00;97992.81;5095868;27;20059;-58
2024/03/06 04:51:09;;;;;;;131.88;44.80;;;;;;;8.56;100.00;97992.09;5091796;27;20046;-58
2024/03/06 04:53:35;;;;;;;111.43;41.58;;;;;;;8.27;100.00;97997.09;5093466;27;20039;-59
2024/03/06 04:56:01;;;;;;;125.55;41.90;;;;;;;8.59;100.00;97994.72;5093135;27;20529;-57
2024/03/06 04:58:26;;;;;;;149.45;43.92;;;;;;;8.50;100.00;97997.22;5095092;27;20028;-57
2024/03/06 05:00:51;;;;;;;131.90;41.72;;;;;;;8.32;100.00;98000.59;5093436;27;20043;-59
2024/03/06 05:03:17;;;;;;;106.18;42.28;;;;;;;8.80;100.00;97998.25;5094622;28;20045;-56
2024/03/06 05:05:42;;;;;;;121.13;43.10;;;;;;;8.62;100.00;98004.25;5094924;27;20384;-59
2024/03/06 05:08:07;;;;;;;106.60;42.92;;;;;;;8.43;100.00;98004.09;5093798;27;20028;-57
2024/03/06 05:10:33;;;;;;;118.82;40.67;;;;;;;8.61;100.00;98004.22;5093335;27;20110;-57
2024/03/06 05:12:59;;;;;;;168.23;45.97;;;;;;;8.53;100.00;98001.56;5092434;28;20027;-58
2024/03/06 05:15:24;;;;;;;105.68;36.88;;;;;;;8.56;100.00;97999.00;5092240;28;20103;-57
2024/03/06 05:17:49;;;;;;;115.03;40.75;;;;;;;8.21;100.00;98003.13;5096096;27;20524;-59
2024/03/06 05:20:16;;;;;;;117.20;39.50;;;;;;;8.23;100.00;97998.78;5093585;27;20369;-57
2024/03/06 05:22:41;;;;;;;93.28;36.92;;;;;;;8.34;100.00;98010.09;5094098;27;20511;-58
2024/03/06 05:25:07;;;;;;;120.50;38.30;;;;;;;8.40;100.00;98009.28;5093070;27;20134;-57
2024/03/06 05:27:32;;;;;;;111.90;40.47;;;;;;;8.68;100.00;98012.03;5093513;28;20042;-59
2024/03/06 05:29:57;;;;;;;170.98;45.42;;;;;;;8.23;100.00;98010.91;5093396;28;20031;-58
2024/03/06 05:32:23;;;;;;;102.20;37.08;;;;;;;7.94;100.00;98010.69;5094108;27;20035;-57
2024/03/06 05:34:48;;;;;;;132.38;40.65;;;;;;;8.10;100.00;98018.59;5094026;28;20019;-59
2024/03/06 05:37:14;;;;;;;101.95;34.55;;;;;;;7.94;100.00;98021.06;5092676;27;20027;-57
2024/03/06 05:39:40;;;;;;;99.13;44.50;;;;;;;7.94;100.00;98028.81;5095746;28;20702;-59
2024/03/06 05:42:06;;;;;;;161.32;45.38;;;;;;;8.34;100.00;98024.78;5092076;27;20036;-59
2024/03/06 05:44:32;;;;;;;109.57;45.17;;;;;;;8.44;100.00;98021.41;5094359;28;20528;-57
2024/03/06 05:47:01;;;;;;;126.47;42.00;;;;;;;8.23;100.00;98029.03;5091830;27;20032;-57
2024/03/06 05:49:27;;;;;;;103.70;38.80;;;;;;;8.21;100.00;98029.88;5094773;28;20116;-57
2024/03/06 05:51:53;;;;;;;110.05;43.70;;;;;;;8.39;100.00;98030.84;5090671;27;20450;-59
2024/03/06 05:54:22;;;;;;;131.15;44.20;;;;;;;8.49;100.00;98042.16;5093192;28;20030;-58
2024/03/06 05:56:49;;;;;;;110.05;44.33;;;;;;;8.58;100.00;98046.56;5093001;27;20039;-57
2024/03/06 05:59:15;;;;;;;113.82;41.65;;;;;;;8.53;100.00;98050.81;5091835;28;20495;-58
2024/03/06 06:01:41;;;;;;;115.05;43.80;;;;;;;8.67;100.00;98050.91;5092071;27;20054;-58
2024/03/06 06:04:09;;;;;;;163.55;50.70;;;;;;;8.87;100.00;98051.00;5093580;28;20031;-59
2024/03/06 06:06:34;;;;;;;104.75;41.42;;;;;;;8.95;100.00;98043.28;5092421;28;20047;-57
2024/03/06 06:09:00;;;;;;;159.95;45.58;;;;;;;9.24;100.00;98056.34;5092392;28;20468;-57
2024/03/06 06:11:25;;;;;;;115.15;42.08;;;;;;;9.56;100.00;98054.69;5092101;27;20292;-59
2024/03/06 06:13:50;;;;;;;115.38;43.88;;;;;;;9.05;100.00;98060.59;5092355;28;20023;-57
2024/03/06 06:16:16;;;;;;;121.32;51.97;;;;;;;8.50;100.00;98066.34;5092986;27;20363;-57
2024/03/06 06:18:41;;;;;;;115.20;43.67;;;;;;;8.69;100.00;98073.41;5095274;28;20066;-57
2024/03/06 06:21:07;;;;;;;157.85;49.95;;;;;;;9.07;100.00;98071.00;5089858;27;20035;-59
2024/03/06 06:23:34;;;;;;;146.32;53.20;;;;;;;9.47;100.00;98076.31;5093287;27;20065;-59
2024/03/06 06:25:59;;;;;;;146.00;43.65;;;;;;;9.22;100.00;98084.03;5095848;27;20043;-57
2024/03/06 06:28:24;;;;;;;135.63;41.95;;;;;;;8.89;100.00;98083.03;5099271;27;20079;-60
2024/03/06 06:30:52;;;;;;;115.13;42.78;;;;;;;9.17;100.00;98090.06;5096619;27;20403;-59
2024/03/06 06:33:20;;;;;;;124.40;42.97;;;;;;;9.56;100.00;98083.25;5096878;27;20035;-57
2024/03/06 06:35:46;;;;;;;145.20;42.85;;;;;;;9.47;100.00;98094.47;5097443;27;20485;-60
2024/03/06 06:38:12;;;;;;;105.80;39.75;;;;;;;9.36;100.00;98094.44;5095359;27;20670;-60
2024/03/06 06:40:37;;;;;;;127.68;46.83;;;;;;;9.70;100.00;98095.41;5096679;27;20335;-58
2024/03/06 06:43:02;;;;;;;175.27;46.75;;;;;;;9.31;100.00;98105.69;5094070;27;20032;-59
2024/03/06 06:45:28;;;;;;;123.63;36.28;;;;;;;9.14;100.00;98101.31;5095945;27;20089;-59
2024/03/06 06:47:53;;;;;;;111.05;45.83;;;;;;;9.50;100.00;98112.66;5096758;27;20852;-58
2024/03/06 06:50:22;;;;;;;138.45;42.17;;;;;;;9.81;100.00;98105.81;5094532;27;20036;-60
2024/03/06 06:52:48;;;;;;;123.20;40.78;;;;;;;9.55;100.00;98111.81;5096167;27;20023;-58
2024/03/06 06:55:13;;;;;;;121.13;38.85;;;;;;;9.55;100.00;98110.09;5092980;27;20036;-59
2024/03/06 06:57:39;;;;;;;134.95;45.65;;;;;;;9.36;100.00;98106.56;5097534;27;20031;-59
2024/03/06 07:00:11;;;;;;;163.38;45.13;;;;;;;9.09;100.00;98122.03;5094994;27;20038;-60
2024/03/06 07:02:38;;;;;;;143.90;47.75;;;;;;;9.18;100.00;98120.34;5097252;27;20048;-57
2024/03/06 07:05:04;;;;;;;138.07;44.67;;;;;;;9.09;100.00;98129.81;5095582;27;20103;-60
2024/03/06 07:07:30;;;;;;;170.45;102.47;;;;;;;8.97;100.00;98124.56;5097069;27;20134;-57
2024/03/06 07:09:55;;;;;;;157.75;43.00;;;;;;;8.87;100.00;98126.22;5097310;27;20023;-57
2024/03/06 07:12:21;;;;;;;115.22;42.83;;;;;;;8.65;100.00;98128.69;5097830;27;20023;-59
2024/03/06 07:14:47;;;;;;;101.53;55.15;;;;;;;8.55;100.00;98134.69;5097963;27;21095;-57
2024/03/06 07:17:12;;;;;;;209.40;93.78;;;;;;;8.71;100.00;98138.25;5095710;27;20042;-57
2024/03/06 07:19:39;;;;;;;168.48;116.47;;;;;;;8.25;100.00;98130.97;5097742;27;20024;-56
2024/03/06 07:22:04;;;;;;;171.00;89.03;;;;;;;8.49;100.00;98139.81;5095935;27;20131;-56
2024/03/06 07:24:29;;;;;;;134.85;46.10;;;;;;;8.82;100.00;98136.59;5095473;27;20457;-59
2024/03/06 07:26:55;;;;;;;113.70;48.67;;;;;;;9.14;100.00;98139.34;5097885;27;20038;-58
2024/03/06 07:29:20;;;;;;;111.53;39.47;;;;;;;9.37;100.00;98140.34;5096083;27;20108;-57
2024/03/06 07:31:45;;;;;;;115.05;30.23;;;;;;;9.80;100.00;98141.28;5096060;27;20138;-58
2024/03/06 07:34:12;;;;;;;149.27;51.63;;;;;;;10.21;100.00;98141.38;5095113;27;20043;-56
2024/03/06 07:36:37;;;;;;;116.57;78.20;;;;;;;10.78;100.00;98138.78;5096548;27;20598;-57
2024/03/06 07:39:03;;;;;;;159.73;57.03;;;;;;;11.27;100.00;98147.31;5094813;27;20050;-56
2024/03/06 07:41:28;;;;;;;113.68;41.85;;;;;;;11.68;100.00;98142.78;5096717;27;20804;-56
2024/03/06 07:43:54;;;;;;;121.47;70.47;;;;;;;12.30;100.00;98145.91;5096298;27;20065;-58
2024/03/06 07:46:19;;;;;;;130.98;39.05;;;;;;;12.26;100.00;98147.66;5093472;27;20032;-58
2024/03/06 07:48:44;;;;;;;98.82;33.92;;;;;;;13.07;100.00;98156.50;5096807;27;20037;-57
2024/03/06 07:51:10;;;;;;;142.50;70.25;;;;;;;12.47;100.00;98156.22;5093886;27;20454;-60
2024/03/06 07:53:36;;;;;;;141.98;40.03;;;;;;;13.13;100.00;98148.59;5095195;27;20027;-60
2024/03/06 07:56:03;;;;;;;109.55;38.17;;;;;;;13.21;100.00;98148.53;5094679;27;20041;-59
2024/03/06 07:58:28;;;;;;;98.82;36.33;;;;;;;13.56;100.00;98149.00;5097817;27;20491;-58
2024/03/06 08:00:55;;;;;;;123.20;50.25;;;;;;;15.30;100.00;98145.34;5095344;27;20035;-57
2024/03/06 08:03:22;;;;;;;148.07;80.53;;;;;;;14.82;100.00;98145.34;5095322;27;20334;-58
2024/03/06 08:05:51;;;;;;;154.57;99.85;;;;;;;14.48;100.00;98153.78;5095718;27;20620;-58
2024/03/06 08:08:16;;;;;;;122.05;33.92;;;;;;;16.25;100.00;98157.28;5094881;27;20092;-58
2024/03/06 08:10:41;;;;;;;84.78;31.52;;;;;;;15.93;100.00;98164.13;5095384;27;20485;-59
2024/03/06 08:13:06;;;;;;;132.07;28.27;;;;;;;14.97;100.00;98144.19;5093485;27;20510;-57
2024/03/06 08:15:32;;;;;;;94.30;46.05;;;;;;;14.55;100.00;98144.06;5095303;27;20497;-58
2024/03/06 08:17:57;;;;;;;76.63;38.05;;;;;;;13.40;100.00;98131.72;5097606;27;20477;-59
2024/03/06 08:20:23;;;;;;;121.40;63.13;;;;;;;12.99;100.00;98131.34;5093412;27;20019;-57
2024/03/06 08:22:49;;;;;;;147.48;110.88;;;;;;;11.90;100.00;98136.56;5097202;27;20016;-57
2024/03/06 08:25:15;;;;;;;130.43;44.20;;;;;;;11.73;100.00;98134.94;5094307;27;20480;-59
2024/03/06 08:27:41;;;;;;;119.25;53.13;;;;;;;11.53;100.00;98148.06;5094007;27;20068;-57
2024/03/06 08:30:08;;;;;;;129.77;52.85;;;;;;;11.53;100.00;98141.13;5093698;27;20085;-59
2024/03/06 08:32:35;;;;;;;154.77;104.03;;;;;;;11.87;100.00;98149.66;5093876;27;20557;-60
2024/03/06 08:35:11;;;;;;;97.35;22.67;;;;;;;12.27;100.00;98154.59;5094942;27;20810;-60
2024/03/06 08:37:40;;;;;;;90.63;38.65;;;;;;;12.74;100.00;98149.00;5092639;27;20157;-57
2024/03/06 08:40:17;;;;;;;184.88;67.93;;;;;;;11.64;100.00;98154.09;5091119;27;20063;-58
2024/03/06 08:42:44;;;;;;;92.05;29.63;;;;;;;11.26;100.00;98153.41;5092084;27;20495;-60
2024/03/06 08:45:10;;;;;;;158.68;75.70;;;;;;;11.18;100.00;98157.75;5092621;27;20092;-59
2024/03/06 08:47:36;;;;;;;121.47;68.97;;;;;;;11.02;100.00;98149.97;5094542;27;20085;-59
2024/03/06 08:50:02;;;;;;;154.95;71.25;;;;;;;11.25;100.00;98158.59;5093572;27;20380;-59
2024/03/06 08:52:27;;;;;;;193.32;123.40;;;;;;;11.02;100.00;98165.59;5094661;27;20035;-59
2024/03/06 08:54:53;;;;;;;111.63;60.50;;;;;;;11.24;100.00;98164.69;5094302;27;20059;-57
2024/03/06 08:57:21;;;;;;;123.95;42.50;;;;;;;10.88;100.00;98167.38;5094221;27;20079;-60
2024/03/06 08:59:46;;;;;;;100.45;36.50;;;;;;;10.90;100.00;98169.09;5095176;27;20141;-57
2024/03/06 09:02:19;;;;;;;127.10;33.53;;;;;;;11.45;100.00;98177.63;5094418;27;20028;-59
2024/03/06 09:04:45;;;;;;;91.53;35.25;;;;;;;11.79;100.00;98174.00;5111111;27;20034;-61
2024/03/06 09:07:11;;;;;;;125.47;27.98;;;;;;;11.39;100.00;98169.81;5092212;27;20345;-57
2024/03/06 09:09:37;;;;;;;126.80;104.25;;;;;;;11.44;100.00;98167.22;5095310;27;20415;-59
2024/03/06 09:12:07;;;;;;;91.03;27.50;;;;;;;11.63;100.00;98169.72;5092817;27;20031;-58
2024/03/06 09:14:33;;;;;;;110.47;64.78;;;;;;;12.28;100.00;98168.53;5095119;27;20038;-58
2024/03/06 09:16:58;;;;;;;126.15;79.90;;;;;;;12.30;100.00;98174.59;5094543;27;20058;-57
2024/03/06 09:19:24;;;;;;;110.90;31.80;;;;;;;12.33;100.00;98169.34;5095235;27;20115;-58
2024/03/06 09:21:49;;;;;;;91.07;34.90;;;;;;;12.56;100.00;98173.50;5094597;27;20389;-59
2024/03/06 09:24:14;;;;;;;118.85;34.83;;;;;;;11.85;100.00;98170.50;5093321;27;20031;-60
2024/03/06 09:26:40;;;;;;;112.18;44.45;;;;;;;11.78;100.00;98174.88;5094785;27;20046;-58
2024/03/06 09:29:05;;;;;;;103.35;26.52;;;;;;;12.17;100.00;98169.44;5094278;27;20419;-57
2024/03/06 09:31:30;;;;;;;73.53;30.60;;;;;;;11.81;100.00;98174.00;5092188;27;20039;-59
2024/03/06 09:33:56;;;;;;;117.22;31.65;;;;;;;11.96;100.00;98175.66;5093395;28;20027;-58
2024/03/06 09:36:21;;;;;;;148.82;50.38;;;;;;;12.44;100.00;98177.94;5092391;27;20440;-59
2024/03/06 09:38:46;;;;;;;126.22;83.20;;;;;;;11.89;100.00;98179.16;5095451;28;20020;-58
2024/03/06 09:41:12;;;;;;;229.18;136.32;;;;;;;12.20;100.00;98179.88;5092622;27;20483;-59
2024/03/06 09:43:41;;;;;;;96.57;26.40;;;;;;;12.32;100.00;98183.28;5094764;28;20122;-59
2024/03/06 09:46:06;;;;;;;88.50;26.25;;;;;;;11.58;100.00;98181.03;5092308;27;20322;-58
2024/03/06 09:48:33;;;;;;;123.25;39.58;;;;;;;11.29;100.00;98184.59;5093561;28;20046;-60
2024/03/06 09:51:04;;;;;;;162.00;91.18;;;;;;;11.15;100.00;98187.28;5094578;27;20384;-59
2024/03/06 09:53:29;;;;;;;128.25;47.53;;;;;;;11.57;100.00;98189.72;5094971;28;20138;-57
2024/03/06 09:55:57;;;;;;;90.22;25.92;;;;;;;11.45;100.00;98190.66;5092825;27;20109;-57
2024/03/06 09:58:23;;;;;;;198.95;115.97;;;;;;;11.26;100.00;98188.97;5096595;27;20030;-59
2024/03/06 10:00:50;;;;;;;126.68;57.72;;;;;;;11.17;100.00;98185.53;5099394;27;20035;-59
2024/03/06 10:03:15;;;;;;;214.43;125.25;;;;;;;10.50;100.00;98192.56;5098357;27;20491;-60
2024/03/06 10:05:43;;;;;;;93.30;43.60;;;;;;;10.01;100.00;98195.06;5099477;27;20074;-60
2024/03/06 10:08:09;;;;;;;161.30;76.65;;;;;;;10.16;100.00;98188.16;5097215;27;20026;-59
2024/03/06 10:10:35;;;;;;;138.35;84.40;;;;;;;10.00;100.00;98188.13;5098926;27;20063;-58
2024/03/06 10:13:00;;;;;;;105.60;40.67;;;;;;;9.93;100.00;98191.56;5098395;27;20072;-57
2024/03/06 10:15:28;;;;;;;149.35;55.35;;;;;;;10.10;100.00;98186.41;5096456;27;20063;-58
2024/03/06 10:18:11;;;;;;;125.28;65.13;;;;;;;10.43;100.00;98183.81;5097913;27;20708;-59
2024/03/06 10:20:37;;;;;;;124.47;44.67;;;;;;;10.42;100.00;98192.50;5095868;27;20032;-57
2024/03/06 10:23:02;;;;;;;99.50;27.90;;;;;;;10.31;100.00;98195.09;5098992;27;20038;-59
2024/03/06 10:25:27;;;;;;;84.13;22.65;;;;;;;10.28;100.00;98193.34;5096327;27;20064;-57
2024/03/06 10:28:10;;;;;;;112.28;26.60;;;;;;;10.27;100.00;98196.84;5097453;27;20196;-59
2024/03/06 10:30:36;;;;;;;;;;;;;;;10.76;100.00;98194.28;5097448;27;20116;-59
2024/03/06 10:33:08;;;;;;;116.20;45.53;;;;;;;11.87;100.00;98196.56;5097768;27;20314;-58
2024/03/06 10:35:33;;;;;;;;;;;;;;;12.33;100.00;98188.44;5096930;27;20538;-60
2024/03/06 10:38:02;;;;;;;65.30;17.88;;;;;;;12.16;100.00;98206.84;5099028;27;19918;-60
2024/03/06 10:40:31;;;;;;;137.40;58.90;;;;;;;12.43;100.00;98201.47;5094009;27;20073;-59
2024/03/06 10:42:57;;;;;;;72.45;15.60;;;;;;;12.58;100.00;98197.84;5097981;27;20015;-59
2024/03/06 10:45:34;;;;;;;101.68;17.20;;;;;;;12.58;100.00;98208.28;5097820;27;20027;-57
2024/03/06 10:48:01;;;;;;;81.00;18.48;;;;;;;12.51;100.00;98207.47;5097088;27;20018;-58
2024/03/06 10:50:27;;;;;;;73.65;17.30;;;;;;;12.58;100.00;98209.16;5096130;27;20177;-59
2024/03/06 10:52:57;;;;;;;86.55;16.05;;;;;;;12.49;100.00;98204.88;5097633;27;20028;-59
2024/03/06 10:55:24;;;;;;;114.95;27.35;;;;;;;12.51;100.00;98212.69;5097041;27;20054;-57
2024/03/06 10:57:54;;;;;;;68.97;14.68;;;;;;;12.76;100.00;98213.34;5097329;27;20219;-59
2024/03/06 11:00:19;;;;;;;114.38;24.88;;;;;;;12.56;100.00;98208.31;5095757;27;20035;-59
2024/03/06 11:02:48;;;;;;;73.78;21.63;;;;;;;11.82;100.00;98220.03;5097985;27;20036;-57
2024/03/06 11:05:14;;;;;;;145.30;25.90;;;;;;;12.18;100.00;98212.03;5097216;27;20022;-60